createdAt,value
2018-05-17T00:01:48.724Z,94907.67
2018-05-17T00:04:16.975Z,94907.40
2018-05-17T00:06:45.231Z,94903.27
2018-05-17T00:09:13.483Z,94906.00
2018-05-17T00:11:41.743Z,94900.20
2018-05-17T00:14:09.995Z,94908.15
2018-05-17T00:16:38.251Z,94904.92
2018-05-17T00:19:06.511Z,94902.89
2018-05-17T00:21:34.780Z,94898.10
2018-05-17T00:24:03.044Z,94897.86
2018-05-17T00:26:31.311Z,94904.09
2018-05-17T00:28:59.562Z,94894.28
2018-05-17T00:31:27.818Z,94898.30
2018-05-17T00:33:56.831Z,94896.78
2018-05-17T00:36:25.075Z,94889.49
2018-05-17T00:38:53.340Z,94893.40
2018-05-17T00:41:21.587Z,94891.46
2018-05-17T00:43:49.851Z,94900.07
2018-05-17T00:46:18.108Z,94898.66
2018-05-17T00:48:46.386Z,94907.05
2018-05-17T00:51:14.640Z,94911.61
2018-05-17T00:53:42.901Z,94906.93
2018-05-17T00:56:11.153Z,94903.00
2018-05-17T00:58:40.198Z,94904.11
2018-05-17T01:01:08.443Z,94905.09
2018-05-17T01:03:36.702Z,94900.57
2018-05-17T01:06:05.724Z,94906.55
2018-05-17T01:08:33.991Z,94900.17
2018-05-17T01:11:02.246Z,94901.85
2018-05-17T01:13:30.521Z,94889.55
2018-05-17T01:15:58.771Z,94893.84
2018-05-17T01:18:27.031Z,94893.86
2018-05-17T01:20:55.290Z,94895.89
2018-05-17T01:23:23.558Z,94897.56
2018-05-17T01:25:52.580Z,94897.08
2018-05-17T01:28:20.851Z,94893.85
2018-05-17T01:30:49.871Z,94894.70
2018-05-17T01:33:18.140Z,94897.52
2018-05-17T01:35:46.394Z,94900.41
2018-05-17T01:38:27.210Z,94895.49
2018-05-17T01:40:55.477Z,94892.27
2018-05-17T01:43:23.739Z,94894.89
2018-05-17T01:45:52.762Z,94892.94
2018-05-17T01:48:21.033Z,94896.75
2018-05-17T01:50:49.295Z,94894.14
2018-05-17T01:53:18.432Z,94895.73
2018-05-17T01:55:46.677Z,94890.74
2018-05-17T01:58:14.943Z,94895.10
2018-05-17T02:00:43.958Z,94895.98
2018-05-17T02:03:12.227Z,94889.43
2018-05-17T02:05:41.255Z,94887.77
2018-05-17T02:08:09.507Z,94886.91
2018-05-17T02:10:38.525Z,94885.56
2018-05-17T02:13:06.791Z,94890.77
2018-05-17T02:15:35.813Z,94889.86
2018-05-17T02:18:04.087Z,94889.56
2018-05-17T02:20:32.349Z,94889.86
2018-05-17T02:23:01.371Z,94893.73
2018-05-17T02:25:31.179Z,94889.98
2018-05-17T02:27:59.447Z,94887.52
2018-05-17T02:30:27.701Z,94885.10
2018-05-17T02:32:55.974Z,94880.06
2018-05-17T02:35:24.225Z,94891.17
2018-05-17T02:37:52.481Z,94885.18
2018-05-17T02:40:20.751Z,94884.04
2018-05-17T02:42:49.003Z,94888.75
2018-05-17T02:45:17.276Z,94886.55
2018-05-17T02:47:45.526Z,94887.36
2018-05-17T02:50:13.794Z,94886.72
2018-05-17T02:52:42.050Z,94887.13
2018-05-17T02:55:10.322Z,94882.55
2018-05-17T02:57:39.332Z,94883.44
2018-05-17T03:00:07.596Z,94887.69
2018-05-17T03:02:36.622Z,94879.90
2018-05-17T03:05:04.883Z,94890.28
2018-05-17T03:07:33.139Z,94890.49
2018-05-17T03:10:01.406Z,94894.53
2018-05-17T03:12:29.676Z,94894.82
2018-05-17T03:14:57.943Z,94890.88
2018-05-17T03:17:26.196Z,94891.17
2018-05-17T03:19:54.459Z,94896.63
2018-05-17T03:22:23.479Z,94889.43
2018-05-17T03:24:51.753Z,94894.70
2018-05-17T03:27:20.968Z,94899.38
2018-05-17T03:29:49.231Z,94898.34
2018-05-17T03:32:17.482Z,94896.77
2018-05-17T03:34:45.755Z,94907.52
2018-05-17T03:37:14.006Z,94906.64
2018-05-17T03:39:42.274Z,94900.89
2018-05-17T03:42:10.527Z,94904.21
2018-05-17T03:44:38.795Z,94901.99
2018-05-17T03:47:07.832Z,94908.43
2018-05-17T03:49:36.092Z,94908.00
2018-05-17T03:52:04.343Z,94906.70
2018-05-17T03:54:32.614Z,94905.74
2018-05-17T03:57:00.864Z,94907.94
2018-05-17T03:59:29.135Z,94898.20
2018-05-17T04:02:14.963Z,94907.95
2018-05-17T04:05:00.799Z,94907.75
2018-05-17T04:07:29.080Z,94906.99
2018-05-17T04:09:57.331Z,94909.37
2018-05-17T04:12:26.347Z,94907.13
2018-05-17T04:14:54.612Z,94909.41
2018-05-17T04:17:23.631Z,94916.94
2018-05-17T04:19:51.905Z,94916.22
2018-05-17T04:22:20.161Z,94921.48
2018-05-17T04:24:49.191Z,94916.02
2018-05-17T04:27:17.446Z,94918.23
2018-05-17T04:29:45.719Z,94918.84
2018-05-17T04:32:14.726Z,94921.33
2018-05-17T04:34:43.007Z,94921.12
2018-05-17T04:37:12.022Z,94919.48
2018-05-17T04:39:40.275Z,94919.80
2018-05-17T04:42:09.311Z,94920.73
2018-05-17T04:44:37.563Z,94920.73
2018-05-17T04:47:06.682Z,94921.47
2018-05-17T04:49:34.902Z,94924.05
2018-05-17T04:52:03.172Z,94920.89
2018-05-17T04:54:31.464Z,94914.03
2018-05-17T04:56:59.727Z,94908.95
2018-05-17T04:59:27.981Z,94910.73
2018-05-17T05:01:56.242Z,94908.77
2018-05-17T05:04:24.502Z,94918.07
2018-05-17T05:06:52.766Z,94914.75
2018-05-17T05:09:21.077Z,94914.50
2018-05-17T05:11:49.266Z,94912.84
2018-05-17T05:14:17.554Z,94908.19
2018-05-17T05:16:45.791Z,94911.06
2018-05-17T05:19:14.047Z,94912.33
2018-05-17T05:21:42.298Z,94914.10
2018-05-17T05:24:10.563Z,94921.82
2018-05-17T05:26:39.591Z,94928.66
2018-05-17T05:29:07.847Z,94923.23
2018-05-17T05:31:36.283Z,94930.46
2018-05-17T05:34:04.434Z,94927.25
2018-05-17T05:36:32.691Z,94926.99
2018-05-17T05:39:00.942Z,94919.86
2018-05-17T05:41:29.209Z,94923.91
2018-05-17T05:43:57.472Z,94921.67
2018-05-17T05:46:25.720Z,94922.03
2018-05-17T05:48:54.062Z,94917.48
2018-05-17T05:51:22.267Z,94919.29
2018-05-17T05:53:51.375Z,94924.76
2018-05-17T05:56:19.648Z,94927.55
2018-05-17T05:58:48.753Z,94927.77
2018-05-17T06:01:17.023Z,94925.15
2018-05-17T06:03:46.039Z,94932.20
2018-05-17T06:06:14.307Z,94930.89
2018-05-17T06:08:43.323Z,94935.70
2018-05-17T06:11:11.608Z,94939.20
2018-05-17T06:13:39.859Z,94935.84
2018-05-17T06:16:08.915Z,94942.94
2018-05-17T06:18:37.165Z,94942.16
2018-05-17T06:21:05.420Z,94947.34
2018-05-17T06:23:34.499Z,94948.00
2018-05-17T06:26:02.768Z,94950.10
2018-05-17T06:28:31.034Z,94950.99
2018-05-17T06:30:59.283Z,94954.94
2018-05-17T06:33:27.543Z,94951.02
2018-05-17T06:35:56.571Z,94946.72
2018-05-17T06:38:24.836Z,94948.33
2018-05-17T06:40:53.097Z,94945.31
2018-05-17T06:43:22.118Z,94947.28
2018-05-17T06:45:50.375Z,94942.59
2018-05-17T06:48:19.400Z,94944.42
2018-05-17T06:50:47.655Z,94946.37
2018-05-17T06:53:16.691Z,94954.00
2018-05-17T06:55:44.944Z,94947.87
2018-05-17T06:58:13.359Z,94949.77
2018-05-17T07:00:41.710Z,94953.33
2018-05-17T07:03:09.872Z,94953.84
2018-05-17T07:05:40.153Z,94949.46
2018-05-17T07:08:08.419Z,94950.66
2018-05-17T07:10:36.686Z,94946.68
2018-05-17T07:13:04.951Z,94943.33
2018-05-17T07:15:33.984Z,94943.97
2018-05-17T07:18:02.366Z,94942.84
2018-05-17T07:20:31.255Z,94943.79
2018-05-17T07:22:59.525Z,94943.97
2018-05-17T07:25:27.773Z,94949.01
2018-05-17T07:27:56.800Z,94950.67
2018-05-17T07:30:25.052Z,94954.00
2018-05-17T07:32:54.084Z,94959.39
2018-05-17T07:35:22.339Z,94960.82
2018-05-17T07:37:51.366Z,94965.91
2018-05-17T07:40:20.483Z,94970.90
2018-05-17T07:42:48.748Z,94976.44
2018-05-17T07:45:17.007Z,94981.11
2018-05-17T07:47:45.270Z,94983.81
2018-05-17T07:50:13.684Z,94984.65
2018-05-17T07:52:41.980Z,94979.31
2018-05-17T07:55:10.202Z,94988.20
2018-05-17T07:57:38.474Z,94990.53
2018-05-17T08:00:06.746Z,94982.69
2018-05-17T08:02:35.003Z,94989.62
2018-05-17T08:05:03.258Z,94986.25
2018-05-17T08:07:31.532Z,94988.11
2018-05-17T08:10:00.573Z,94984.02
2018-05-17T08:12:28.831Z,94977.81
2018-05-17T08:14:57.080Z,94986.00
2018-05-17T08:17:26.106Z,94977.08
2018-05-17T08:19:54.371Z,94990.48
2018-05-17T08:22:23.381Z,94990.28
2018-05-17T08:24:51.647Z,94994.46
2018-05-17T08:27:19.898Z,94988.34
2018-05-17T08:29:48.167Z,94997.50
2018-05-17T08:32:16.483Z,94999.35
2018-05-17T08:34:45.507Z,94999.98
2018-05-17T08:37:13.758Z,94995.39
2018-05-17T08:39:43.112Z,94997.69
2018-05-17T08:42:11.364Z,95003.33
2018-05-17T08:44:39.632Z,95002.93
2018-05-17T08:47:08.656Z,94997.67
2018-05-17T08:49:36.929Z,95003.29
2018-05-17T08:52:05.175Z,95007.14
2018-05-17T08:54:33.438Z,95002.05
2018-05-17T08:57:01.694Z,94995.16
2018-05-17T08:59:29.960Z,94994.30
2018-05-17T09:01:58.214Z,94993.95
2018-05-17T09:04:27.234Z,94996.08
2018-05-17T09:06:55.486Z,94998.87
2018-05-17T09:09:24.528Z,94996.04
2018-05-17T09:11:52.780Z,95001.41
2018-05-17T09:14:21.052Z,95000.25
2018-05-17T09:16:49.302Z,95001.90
2018-05-17T09:19:17.574Z,94998.09
2018-05-17T09:21:45.852Z,95001.06
2018-05-17T09:24:14.119Z,95003.16
2018-05-17T09:26:42.376Z,95009.26
2018-05-17T09:29:10.697Z,95005.85
2018-05-17T09:31:38.888Z,95001.81
2018-05-17T09:34:07.152Z,95008.31
2018-05-17T09:36:35.407Z,95011.11
2018-05-17T09:39:03.676Z,95006.50
2018-05-17T09:41:31.967Z,95010.25
2018-05-17T09:44:00.962Z,95005.72
2018-05-17T09:46:29.211Z,95009.67
2018-05-17T09:48:58.240Z,95014.16
2018-05-17T09:51:26.770Z,95012.27
2018-05-17T09:53:55.030Z,95011.55
2018-05-17T09:56:23.283Z,95031.61
2018-05-17T09:58:51.571Z,95027.20
2018-05-17T10:01:19.828Z,95027.58
2018-05-17T10:03:48.099Z,95033.73
2018-05-17T10:06:17.129Z,95035.80
2018-05-17T10:08:45.379Z,95035.10
2018-05-17T10:11:13.659Z,95028.87
2018-05-17T10:13:41.915Z,95032.48
2018-05-17T10:16:10.176Z,95027.22
2018-05-17T10:18:38.432Z,95026.77
2018-05-17T10:21:06.695Z,95023.78
2018-05-17T10:23:34.947Z,95028.15
2018-05-17T10:26:03.984Z,95022.11
2018-05-17T10:28:32.238Z,95021.18
2018-05-17T10:31:01.278Z,95015.64
2018-05-17T10:33:29.524Z,95020.19
2018-05-17T10:35:57.923Z,95025.15
2018-05-17T10:38:26.174Z,95023.55
2018-05-17T10:40:55.203Z,95024.33
2018-05-17T10:43:23.519Z,95019.27
2018-05-17T10:45:52.478Z,95021.88
2018-05-17T10:48:20.730Z,95017.39
2018-05-17T10:50:49.762Z,95022.80
2018-05-17T10:53:18.018Z,95027.84
2018-05-17T10:55:46.290Z,95027.65
2018-05-17T10:58:15.315Z,95029.19
2018-05-17T11:00:43.584Z,95029.03
2018-05-17T11:03:11.840Z,95031.53
2018-05-17T11:05:40.871Z,95027.70
2018-05-17T11:08:09.126Z,95031.15
2018-05-17T11:10:38.156Z,95030.04
2018-05-17T11:13:06.406Z,95023.63
2018-05-17T11:15:34.667Z,95028.45
2018-05-17T11:18:02.921Z,95027.37
2018-05-17T11:20:31.178Z,95024.48
2018-05-17T11:22:59.428Z,95023.77
2018-05-17T11:25:28.459Z,95029.36
2018-05-17T11:27:57.674Z,95026.49
2018-05-17T11:30:25.934Z,95025.04
2018-05-17T11:32:54.186Z,95026.38
2018-05-17T11:35:23.216Z,95026.48
2018-05-17T11:37:51.470Z,95018.33
2018-05-17T11:40:19.719Z,95024.85
2018-05-17T11:42:47.995Z,95031.55
2018-05-17T11:45:17.887Z,95028.16
2018-05-17T11:47:46.176Z,95023.75
2018-05-17T11:50:14.402Z,95025.27
2018-05-17T11:52:43.430Z,95026.54
2018-05-17T11:55:11.682Z,95029.23
2018-05-17T11:57:40.710Z,95022.77
2018-05-17T12:00:08.959Z,95024.13
2018-05-17T12:02:38.013Z,95032.35
2018-05-17T12:05:06.256Z,95029.81
2018-05-17T12:07:34.524Z,95030.95
2018-05-17T12:10:03.538Z,95019.22
2018-05-17T12:12:31.799Z,95016.05
2018-05-17T12:15:00.065Z,95012.69
2018-05-17T12:17:29.099Z,95011.79
2018-05-17T12:19:57.354Z,95020.42
2018-05-17T12:22:26.385Z,95022.27
2018-05-17T12:24:54.638Z,95019.78
2018-05-17T12:27:22.905Z,95024.36
2018-05-17T12:29:51.208Z,95026.73
2018-05-17T12:32:19.474Z,95018.80
2018-05-17T12:34:48.504Z,95025.29
2018-05-17T12:37:16.804Z,95024.66
2018-05-17T12:39:45.027Z,95015.00
2018-05-17T12:42:14.054Z,95020.55
2018-05-17T12:44:42.301Z,95016.97
2018-05-17T12:47:11.321Z,95018.48
2018-05-17T12:49:39.578Z,95018.39
2018-05-17T12:52:09.843Z,95015.16
2018-05-17T12:54:38.095Z,95018.89
2018-05-17T12:57:07.123Z,95012.77
2018-05-17T12:59:35.376Z,95015.58
2018-05-17T13:02:03.641Z,95011.11
2018-05-17T13:04:32.658Z,95018.45
2018-05-17T13:07:00.925Z,95013.71
2018-05-17T13:09:29.939Z,95013.12
2018-05-17T13:11:58.203Z,95012.89
2018-05-17T13:14:27.219Z,95009.84
2018-05-17T13:16:55.491Z,95010.50
2018-05-17T13:19:23.743Z,95009.84
2018-05-17T13:24:51.511Z,95006.09
2018-05-17T13:27:19.743Z,95004.77
2018-05-17T13:29:47.987Z,95008.58
2018-05-17T13:32:17.024Z,95007.30
2018-05-17T13:34:45.291Z,95009.42
2018-05-17T13:37:13.612Z,95004.94
2018-05-17T13:39:41.819Z,95004.64
2018-05-17T13:42:10.083Z,95007.61
2018-05-17T13:44:38.334Z,95001.81
2018-05-17T13:47:06.599Z,95011.56
2018-05-17T13:49:34.858Z,95007.69
2018-05-17T13:52:03.883Z,95007.42
2018-05-17T13:54:32.150Z,95010.28
2018-05-17T13:57:00.415Z,95014.36
2018-05-17T13:59:29.435Z,95017.89
2018-05-17T14:01:57.700Z,95020.33
2018-05-17T14:04:26.727Z,95026.31
2018-05-17T14:06:54.995Z,95031.49
2018-05-17T14:09:23.250Z,95028.34
2018-05-17T14:11:52.283Z,95037.03
2018-05-17T14:14:20.555Z,95035.78
2018-05-17T14:16:48.792Z,95035.17
2018-05-17T14:19:17.058Z,95030.63
2018-05-17T14:21:45.321Z,95030.73
2018-05-17T14:24:13.584Z,95037.54
2018-05-17T14:26:42.547Z,95034.20
2018-05-17T14:29:11.580Z,95029.44
2018-05-17T14:31:39.826Z,95034.52
2018-05-17T14:34:08.858Z,95042.02
2018-05-17T14:36:37.108Z,95034.64
2018-05-17T14:39:06.940Z,95041.45
2018-05-17T14:41:35.191Z,95042.39
2018-05-17T14:44:04.223Z,95048.40
2018-05-17T14:46:32.475Z,95068.40
2018-05-17T14:49:01.500Z,95077.40
2018-05-17T14:51:29.749Z,95079.27
2018-05-17T14:53:58.777Z,95080.99
2018-05-17T14:56:27.043Z,95089.45
2018-05-17T14:58:56.536Z,95094.20
2018-05-17T15:01:25.546Z,95092.72
2018-05-17T15:03:54.567Z,95087.52
2018-05-17T15:06:22.836Z,95095.84
2018-05-17T15:08:51.114Z,95098.83
2018-05-17T15:11:20.123Z,95103.80
2018-05-17T15:13:48.384Z,95099.47
2018-05-17T15:16:17.403Z,95095.53
2018-05-17T15:18:45.667Z,95095.77
2018-05-17T15:21:13.920Z,95094.70
2018-05-17T15:23:42.186Z,95097.17
2018-05-17T15:26:10.448Z,95087.12
2018-05-17T15:28:38.707Z,95082.80
2018-05-17T15:31:06.962Z,95088.27
2018-05-17T15:33:35.991Z,95093.66
2018-05-17T15:36:04.243Z,95098.92
2018-05-17T15:38:33.277Z,95099.47
2018-05-17T15:41:01.522Z,95096.72
2018-05-17T15:43:30.554Z,95094.94
2018-05-17T15:45:58.825Z,95091.98
2018-05-17T15:48:27.099Z,95087.28
2018-05-17T15:50:55.360Z,95087.63
2018-05-17T15:53:23.622Z,95081.73
2018-05-17T15:55:52.663Z,95086.38
2018-05-17T15:58:20.911Z,95079.59
2018-05-17T16:00:49.944Z,95080.09
2018-05-17T16:03:19.064Z,95089.48
2018-05-17T16:05:47.326Z,95093.55
2018-05-17T16:08:15.578Z,95093.22
2018-05-17T16:10:43.843Z,95103.44
2018-05-17T16:13:13.419Z,95105.92
2018-05-17T16:15:41.752Z,95090.41
2018-05-17T16:18:09.972Z,95091.87
2018-05-17T16:20:38.245Z,95088.49
2018-05-17T16:23:06.517Z,95088.26
2018-05-17T16:25:34.794Z,95094.20
2018-05-17T16:28:03.043Z,95089.14
2018-05-17T16:30:32.081Z,95091.66
2018-05-17T16:33:00.348Z,95091.10
2018-05-17T16:35:28.624Z,95091.31
2018-05-17T16:37:56.895Z,95082.42
2018-05-17T16:40:25.163Z,95085.42
2018-05-17T16:42:54.188Z,95086.97
2018-05-17T16:45:22.453Z,95094.39
2018-05-17T16:47:51.477Z,95100.90
2018-05-17T16:50:19.727Z,95104.02
2018-05-17T16:52:48.793Z,95106.45
2018-05-17T16:55:18.272Z,95114.84
2018-05-17T16:57:46.559Z,95117.36
2018-05-17T17:00:14.819Z,95121.16
2018-05-17T17:02:43.846Z,95114.28
2018-05-17T17:05:12.201Z,95120.19
2018-05-17T17:07:40.359Z,95124.78
2018-05-17T17:10:08.625Z,95128.52
2018-05-17T17:12:37.643Z,95132.38
2018-05-17T17:15:05.904Z,95133.16
2018-05-17T17:17:34.926Z,95133.12
2018-05-17T17:20:03.179Z,95123.75
2018-05-17T17:22:31.448Z,95129.39
2018-05-17T17:24:59.720Z,95128.14
2018-05-17T17:27:27.982Z,95126.66
2018-05-17T17:29:56.235Z,95124.13
2018-05-17T17:32:24.495Z,95135.77
2018-05-17T17:34:53.518Z,95125.16
2018-05-17T17:37:21.778Z,95122.87
2018-05-17T17:39:50.042Z,95131.13
2018-05-17T17:42:19.060Z,95130.36
2018-05-17T17:44:47.327Z,95133.92
2018-05-17T17:47:16.247Z,95127.29
2018-05-17T17:49:45.343Z,95130.00
2018-05-17T17:52:13.603Z,95133.80
2018-05-17T17:54:42.628Z,95135.89
2018-05-17T17:57:10.898Z,95139.24
2018-05-17T17:59:39.154Z,95142.09
2018-05-17T18:02:08.176Z,95144.39
2018-05-17T18:04:36.443Z,95142.41
2018-05-17T18:07:04.716Z,95143.98
2018-05-17T18:09:33.733Z,95155.56
2018-05-17T18:12:04.006Z,95154.78
2018-05-17T18:14:32.272Z,95155.13
2018-05-17T18:17:00.538Z,95159.96
2018-05-17T18:19:29.607Z,95157.25
2018-05-17T18:21:58.644Z,95157.08
2018-05-17T18:24:26.927Z,95157.53
2018-05-17T18:26:55.203Z,95163.81
2018-05-17T18:29:23.463Z,95174.02
2018-05-17T18:31:51.726Z,95166.91
2018-05-17T18:34:19.967Z,95166.13
2018-05-17T18:36:48.286Z,95166.55
2018-05-17T18:39:17.277Z,95166.13
2018-05-17T18:41:45.523Z,95167.91
2018-05-17T18:44:13.771Z,95164.34
2018-05-17T18:46:42.031Z,95168.22
2018-05-17T18:49:10.287Z,95166.34
2018-05-17T18:51:38.539Z,95177.06
2018-05-17T18:54:06.787Z,95180.12
2018-05-17T18:56:35.050Z,95182.36
2018-05-17T18:59:03.299Z,95186.06
2018-05-17T19:01:31.609Z,95187.30
2018-05-17T19:03:59.808Z,95185.45
2018-05-17T19:06:28.067Z,95197.95
2018-05-17T19:08:56.319Z,95200.52
2018-05-17T19:11:24.580Z,95201.36
2018-05-17T19:13:52.831Z,95205.83
2018-05-17T19:16:21.098Z,95202.55
2018-05-17T19:18:49.379Z,95206.54
2018-05-17T19:21:17.634Z,95208.39
2018-05-17T19:23:45.896Z,95210.78
2018-05-17T19:26:14.153Z,95215.30
2018-05-17T19:28:42.486Z,95215.40
2018-05-17T19:31:10.652Z,95217.84
2018-05-17T19:33:38.969Z,95219.38
2018-05-17T19:36:07.231Z,95218.25
2018-05-17T19:38:35.491Z,95220.49
2018-05-17T19:41:03.743Z,95226.56
2018-05-17T19:43:31.998Z,95230.76
2018-05-17T19:46:00.347Z,95232.89
2018-05-17T19:48:28.603Z,95234.87
2018-05-17T19:50:57.476Z,95243.30
2018-05-17T19:53:25.734Z,95238.16
2018-05-17T19:55:53.987Z,95243.47
2018-05-17T19:58:22.256Z,95244.95
2018-05-17T20:00:50.508Z,95249.08
2018-05-17T20:03:18.758Z,95250.72
2018-05-17T20:05:47.246Z,95250.63
2018-05-17T20:08:15.492Z,95253.58
2018-05-17T20:10:43.735Z,95246.78
2018-05-17T20:13:11.995Z,95254.06
2018-05-17T20:15:41.013Z,95256.40
2018-05-17T20:18:09.423Z,95253.11
2018-05-17T20:20:37.675Z,95249.05
2018-05-17T20:23:05.929Z,95253.41
2018-05-17T20:25:34.182Z,95256.69
2018-05-17T20:28:02.447Z,95250.30
2018-05-17T20:30:30.704Z,95266.33
2018-05-17T20:32:58.965Z,95271.81
2018-05-17T20:35:27.206Z,95271.83
2018-05-17T20:37:55.470Z,95274.55
2018-05-17T20:40:23.719Z,95273.33
2018-05-17T20:42:52.579Z,95268.20
2018-05-17T20:45:20.925Z,95271.84
2018-05-17T20:47:49.199Z,95276.83
2018-05-17T20:50:17.464Z,95264.04
2018-05-17T20:52:45.735Z,95273.57
2018-05-17T20:55:14.027Z,95273.27
2018-05-17T20:57:42.307Z,95266.41
2018-05-17T21:00:10.563Z,95270.48
2018-05-17T21:02:38.845Z,95266.92
2018-05-17T21:05:07.103Z,95265.58
2018-05-17T21:07:35.373Z,95264.07
2018-05-17T21:10:03.631Z,95263.52
2018-05-17T21:12:31.891Z,95262.16
2018-05-17T21:15:00.153Z,95260.92
2018-05-17T21:17:28.421Z,95258.19
2018-05-17T21:19:56.674Z,95255.00
2018-05-17T21:22:24.931Z,95257.44
2018-05-17T21:24:53.195Z,95247.19
2018-05-17T21:27:21.454Z,95248.51
2018-05-17T21:29:49.719Z,95253.94
2018-05-17T21:32:17.995Z,95247.71
2018-05-17T21:34:46.267Z,95246.73
2018-05-17T21:37:14.522Z,95248.12
2018-05-17T21:39:42.800Z,95245.41
2018-05-17T21:42:11.035Z,95253.45
2018-05-17T21:44:39.309Z,95251.31
2018-05-17T21:47:07.627Z,95248.94
2018-05-17T21:49:35.895Z,95251.03
2018-05-17T21:52:04.183Z,95247.89
2018-05-17T21:54:33.011Z,95249.20
2018-05-17T21:57:01.261Z,95253.94
2018-05-17T21:59:29.526Z,95261.91
2018-05-17T22:01:57.783Z,95256.27
2018-05-17T22:04:26.079Z,95250.03
2018-05-17T22:06:54.330Z,95251.31
2018-05-17T22:09:22.595Z,95253.53
2018-05-17T22:11:50.846Z,95243.42
2018-05-17T22:14:19.117Z,95244.02
2018-05-17T22:16:47.374Z,95241.09
2018-05-17T22:19:15.646Z,95253.44
2018-05-17T22:21:43.895Z,95257.80
2018-05-17T22:24:12.237Z,95257.11
2018-05-17T22:26:40.501Z,95253.49
2018-05-17T22:29:08.758Z,95255.36
2018-05-17T22:31:37.022Z,95261.93
2018-05-17T22:34:05.271Z,95265.66
2018-05-17T22:36:33.539Z,95267.71
2018-05-17T22:39:01.807Z,95263.62
2018-05-17T22:41:30.080Z,95272.14
2018-05-17T22:43:58.327Z,95264.78
2018-05-17T22:46:26.603Z,95267.80
2018-05-17T22:48:54.872Z,95260.63
2018-05-17T22:51:23.127Z,95257.82
2018-05-17T22:53:51.382Z,95260.55
2018-05-17T22:56:37.266Z,95254.79
2018-05-17T22:59:05.524Z,95258.72
2018-05-17T23:01:33.786Z,95259.45
2018-05-17T23:04:02.038Z,95254.28
2018-05-17T23:06:30.313Z,95256.88
2018-05-17T23:08:58.566Z,95255.98
2018-05-17T23:11:26.830Z,95257.86
2018-05-17T23:13:55.091Z,95261.39
2018-05-17T23:16:23.354Z,95258.07
2018-05-17T23:18:51.625Z,95259.59
2018-05-17T23:21:20.193Z,95256.62
2018-05-17T23:23:48.523Z,95247.86
2018-05-17T23:26:16.776Z,95249.73
2018-05-17T23:28:45.819Z,95256.07
2018-05-17T23:31:14.082Z,95252.02
2018-05-17T23:33:42.344Z,95251.11
2018-05-17T23:36:10.611Z,95257.04
2018-05-17T23:38:38.867Z,95250.77
2018-05-17T23:41:24.594Z,95246.41
2018-05-17T23:43:52.844Z,95239.48
2018-05-17T23:46:21.110Z,95245.22
2018-05-17T23:48:49.362Z,95242.25
2018-05-17T23:51:17.627Z,95245.53
2018-05-17T23:53:45.966Z,95244.05
2018-05-17T23:56:14.227Z,95246.75
2018-05-17T23:58:42.495Z,95242.80
